This is the latest recevied weather packets stored in our database for station/object SP9WPN-12. If no packets are shown the sender has not sent any weather packets the latest 10 day(s).
| Time | Temp. | Humidity | Pressure | Rain* | Wind** | Luminosity | Snow |
|---|---|---|---|---|---|---|---|
| 1777389289 | 13.89° C | 24% | 1023.2 hPa | - | - | - | - |
| 1777388691 | 13.33° C | 24% | 1023.3 hPa | - | - | - | - |
| 1777388093 | 13.89° C | 24% | 1023.2 hPa | - | - | - | - |
| 1777387495 | 13.89° C | 24% | 1023.2 hPa | - | - | - | - |
| 1777386897 | 14.44° C | 24% | 1023.1 hPa | - | - | - | - |
| 1777386299 | 13.89° C | 24% | 1023.2 hPa | - | - | - | - |
| 1777385702 | 13.89° C | 24% | 1023.3 hPa | - | - | - | - |
| 1777385105 | 14.44° C | 23% | 1023.5 hPa | - | - | - | - |
| 1777384506 | 15° C | 23% | 1023.4 hPa | - | - | - | - |
| 1777383909 | 13.89° C | 24% | 1023.7 hPa | - | - | - | - |
| 1777383311 | 13.89° C | 25% | 1023.7 hPa | - | - | - | - |
| 1777382712 | 14.44° C | 24% | 1023.6 hPa | - | - | - | - |
| 1777382115 | 15° C | 23% | 1023.6 hPa | - | - | - | - |
| 1777381517 | 14.44° C | 24% | 1023.8 hPa | - | - | - | - |
| 1777380919 | 14.44° C | 24% | 1023.8 hPa | - | - | - | - |
| 1777380321 | 14.44° C | 25% | 1023.8 hPa | - | - | - | - |
| 1777379724 | 15° C | 25% | 1023.6 hPa | - | - | - | - |
| 1777379126 | 15° C | 25% | 1023.7 hPa | - | - | - | - |
| 1777378528 | 14.44° C | 24% | 1023.9 hPa | - | - | - | - |
| 1777377930 | 13.89° C | 25% | 1024 hPa | - | - | - | - |
| 1777377333 | 14.44° C | 25% | 1024 hPa | - | - | - | - |
| 1777376736 | 15° C | 23% | 1023.9 hPa | - | - | - | - |
| 1777376138 | 14.44° C | 25% | 1024 hPa | - | - | - | - |
| 1777375540 | 16.11° C | 23% | 1023.9 hPa | - | - | - | - |
| 1777374943 | 13.89° C | 26% | 1024.2 hPa | - | - | - | - |
* Rain since midnight (hover to see other rain measurements)
** Current wind speed in m/s (hover to see current wind gust speed)